sensor_id;sensor_type;location;lat;lon;timestamp;temperature;humidity
11284;DHT22;5698;47.332;11.180;2022-10-18T00:00:11;10.00;99.90
11284;DHT22;5698;47.332;11.180;2022-10-18T00:02:38;10.00;99.90
11284;DHT22;5698;47.332;11.180;2022-10-18T00:05:05;10.10;99.90
11284;DHT22;5698;47.332;11.180;2022-10-18T00:07:32;10.00;99.90
11284;DHT22;5698;47.332;11.180;2022-10-18T00:09:59;9.90;99.90
11284;DHT22;5698;47.332;11.180;2022-10-18T00:12:26;9.80;99.90
11284;DHT22;5698;47.332;11.180;2022-10-18T00:14:55;9.80;99.90
11284;DHT22;5698;47.332;11.180;2022-10-18T00:17:22;9.80;99.90
11284;DHT22;5698;47.332;11.180;2022-10-18T00:19:49;9.90;99.90
11284;DHT22;5698;47.332;11.180;2022-10-18T00:22:16;10.00;99.90
11284;DHT22;5698;47.332;11.180;2022-10-18T00:24:43;10.00;99.90
11284;DHT22;5698;47.332;11.180;2022-10-18T00:27:10;10.00;99.90
11284;DHT22;5698;47.332;11.180;2022-10-18T00:29:37;10.00;99.90
11284;DHT22;5698;47.332;11.180;2022-10-18T00:32:05;10.00;99.90
11284;DHT22;5698;47.332;11.180;2022-10-18T00:34:32;9.90;99.90
11284;DHT22;5698;47.332;11.180;2022-10-18T00:36:59;9.90;99.90
11284;DHT22;5698;47.332;11.180;2022-10-18T00:39:26;9.80;99.90
11284;DHT22;5698;47.332;11.180;2022-10-18T00:41:53;9.70;99.90
11284;DHT22;5698;47.332;11.180;2022-10-18T00:47:26;9.60;99.90
11284;DHT22;5698;47.332;11.180;2022-10-18T00:49:55;9.60;99.90
11284;DHT22;5698;47.332;11.180;2022-10-18T00:52:26;9.50;99.90
11284;DHT22;5698;47.332;11.180;2022-10-18T00:54:56;9.50;99.90
11284;DHT22;5698;47.332;11.180;2022-10-18T00:57:23;9.40;99.90
11284;DHT22;5698;47.332;11.180;2022-10-18T00:59:51;9.40;99.90
11284;DHT22;5698;47.332;11.180;2022-10-18T01:02:19;9.50;99.90
11284;DHT22;5698;47.332;11.180;2022-10-18T01:04:47;9.40;99.90
11284;DHT22;5698;47.332;11.180;2022-10-18T01:07:24;9.40;99.90
11284;DHT22;5698;47.332;11.180;2022-10-18T01:10:00;9.30;99.90
11284;DHT22;5698;47.332;11.180;2022-10-18T01:12:41;9.30;99.90
11284;DHT22;5698;47.332;11.180;2022-10-18T01:15:15;9.30;99.90
11284;DHT22;5698;47.332;11.180;2022-10-18T01:17:50;9.30;99.90
11284;DHT22;5698;47.332;11.180;2022-10-18T01:20:58;9.30;99.90
11284;DHT22;5698;47.332;11.180;2022-10-18T01:23:39;9.30;99.90
11284;DHT22;5698;47.332;11.180;2022-10-18T01:26:18;9.30;99.90
11284;DHT22;5698;47.332;11.180;2022-10-18T01:28:55;9.30;99.90
11284;DHT22;5698;47.332;11.180;2022-10-18T01:31:29;9.30;99.90
11284;DHT22;5698;47.332;11.180;2022-10-18T01:33:59;9.20;99.90
11284;DHT22;5698;47.332;11.180;2022-10-18T01:36:29;9.20;99.90
11284;DHT22;5698;47.332;11.180;2022-10-18T01:39:02;9.20;99.90
11284;DHT22;5698;47.332;11.180;2022-10-18T01:41:32;9.30;99.90
11284;DHT22;5698;47.332;11.180;2022-10-18T01:44:01;9.30;99.90
11284;DHT22;5698;47.332;11.180;2022-10-18T01:46:30;9.30;99.90
11284;DHT22;5698;47.332;11.180;2022-10-18T01:48:58;9.40;99.90
11284;DHT22;5698;47.332;11.180;2022-10-18T01:51:26;9.40;99.90
11284;DHT22;5698;47.332;11.180;2022-10-18T01:53:54;9.50;99.90
11284;DHT22;5698;47.332;11.180;2022-10-18T01:56:29;9.30;99.90
11284;DHT22;5698;47.332;11.180;2022-10-18T01:59:12;9.30;99.90
11284;DHT22;5698;47.332;11.180;2022-10-18T02:01:50;9.30;99.90
11284;DHT22;5698;47.332;11.180;2022-10-18T02:04:23;9.30;99.90
11284;DHT22;5698;47.332;11.180;2022-10-18T02:06:56;9.30;99.90
11284;DHT22;5698;47.332;11.180;2022-10-18T02:09:32;9.30;99.90
11284;DHT22;5698;47.332;11.180;2022-10-18T02:12:00;9.20;99.90
11284;DHT22;5698;47.332;11.180;2022-10-18T02:14:29;9.10;99.90
11284;DHT22;5698;47.332;11.180;2022-10-18T02:17:00;9.10;99.90
11284;DHT22;5698;47.332;11.180;2022-10-18T02:19:32;9.10;99.90
11284;DHT22;5698;47.332;11.180;2022-10-18T02:22:01;9.00;99.90
11284;DHT22;5698;47.332;11.180;2022-10-18T02:24:32;9.00;99.90
11284;DHT22;5698;47.332;11.180;2022-10-18T02:27:00;9.00;99.90
11284;DHT22;5698;47.332;11.180;2022-10-18T02:29:27;9.10;99.90
11284;DHT22;5698;47.332;11.180;2022-10-18T02:32:01;9.10;99.90
11284;DHT22;5698;47.332;11.180;2022-10-18T02:34:33;9.10;99.90
11284;DHT22;5698;47.332;11.180;2022-10-18T02:37:02;9.10;99.90
11284;DHT22;5698;47.332;11.180;2022-10-18T02:39:31;9.10;99.90
11284;DHT22;5698;47.332;11.180;2022-10-18T02:41:59;8.90;99.90
11284;DHT22;5698;47.332;11.180;2022-10-18T02:44:26;8.80;99.90
11284;DHT22;5698;47.332;11.180;2022-10-18T02:46:53;8.90;99.90
11284;DHT22;5698;47.332;11.180;2022-10-18T02:49:22;9.00;99.90
11284;DHT22;5698;47.332;11.180;2022-10-18T02:51:48;9.00;99.90
11284;DHT22;5698;47.332;11.180;2022-10-18T02:54:15;9.00;99.90
11284;DHT22;5698;47.332;11.180;2022-10-18T02:56:42;9.10;99.90
11284;DHT22;5698;47.332;11.180;2022-10-18T02:59:10;9.10;99.90
11284;DHT22;5698;47.332;11.180;2022-10-18T03:01:37;9.10;99.90
11284;DHT22;5698;47.332;11.180;2022-10-18T03:04:04;9.10;99.90
11284;DHT22;5698;47.332;11.180;2022-10-18T03:06:33;9.10;99.90
11284;DHT22;5698;47.332;11.180;2022-10-18T03:09:01;9.10;99.90
11284;DHT22;5698;47.332;11.180;2022-10-18T03:11:28;9.00;99.90
11284;DHT22;5698;47.332;11.180;2022-10-18T03:13:55;9.00;99.90
11284;DHT22;5698;47.332;11.180;2022-10-18T03:16:22;9.00;99.90
11284;DHT22;5698;47.332;11.180;2022-10-18T03:18:49;8.90;99.90
11284;DHT22;5698;47.332;11.180;2022-10-18T03:21:16;8.90;99.90
11284;DHT22;5698;47.332;11.180;2022-10-18T03:23:44;9.00;99.90
11284;DHT22;5698;47.332;11.180;2022-10-18T03:26:11;8.90;99.90
11284;DHT22;5698;47.332;11.180;2022-10-18T03:28:38;8.90;99.90
11284;DHT22;5698;47.332;11.180;2022-10-18T03:31:05;9.00;99.90
11284;DHT22;5698;47.332;11.180;2022-10-18T03:33:32;8.90;99.90
11284;DHT22;5698;47.332;11.180;2022-10-18T03:35:59;8.90;99.90
11284;DHT22;5698;47.332;11.180;2022-10-18T03:38:26;8.80;99.90
11284;DHT22;5698;47.332;11.180;2022-10-18T03:40:55;8.90;99.90
11284;DHT22;5698;47.332;11.180;2022-10-18T03:43:22;8.90;99.90
11284;DHT22;5698;47.332;11.180;2022-10-18T03:45:49;8.80;99.90
11284;DHT22;5698;47.332;11.180;2022-10-18T03:48:16;8.80;99.90
11284;DHT22;5698;47.332;11.180;2022-10-18T03:50:43;8.90;99.90
11284;DHT22;5698;47.332;11.180;2022-10-18T03:53:10;9.00;99.90
11284;DHT22;5698;47.332;11.180;2022-10-18T03:55:37;8.90;99.90
11284;DHT22;5698;47.332;11.180;2022-10-18T03:58:05;8.90;99.90
11284;DHT22;5698;47.332;11.180;2022-10-18T04:00:32;8.90;99.90
11284;DHT22;5698;47.332;11.180;2022-10-18T04:03:00;9.00;99.90
11284;DHT22;5698;47.332;11.180;2022-10-18T04:05:27;8.90;99.90
11284;DHT22;5698;47.332;11.180;2022-10-18T04:07:55;8.90;99.90
11284;DHT22;5698;47.332;11.180;2022-10-18T04:10:22;8.80;99.90
11284;DHT22;5698;47.332;11.180;2022-10-18T04:12:49;8.80;99.90
11284;DHT22;5698;47.332;11.180;2022-10-18T04:15:18;8.90;99.90
11284;DHT22;5698;47.332;11.180;2022-10-18T04:17:45;8.90;99.90
11284;DHT22;5698;47.332;11.180;2022-10-18T04:20:12;8.90;99.90
11284;DHT22;5698;47.332;11.180;2022-10-18T04:22:39;8.90;99.90
11284;DHT22;5698;47.332;11.180;2022-10-18T04:25:06;8.90;99.90
11284;DHT22;5698;47.332;11.180;2022-10-18T04:27:34;8.90;99.90
11284;DHT22;5698;47.332;11.180;2022-10-18T04:30:01;8.80;99.90
11284;DHT22;5698;47.332;11.180;2022-10-18T04:32:29;8.80;99.90
11284;DHT22;5698;47.332;11.180;2022-10-18T04:34:56;8.80;99.90
11284;DHT22;5698;47.332;11.180;2022-10-18T04:37:23;8.70;99.90
11284;DHT22;5698;47.332;11.180;2022-10-18T04:39:50;8.60;99.90
11284;DHT22;5698;47.332;11.180;2022-10-18T04:42:17;8.60;99.90
11284;DHT22;5698;47.332;11.180;2022-10-18T04:44:44;8.70;99.90
11284;DHT22;5698;47.332;11.180;2022-10-18T04:47:10;8.70;99.90
11284;DHT22;5698;47.332;11.180;2022-10-18T04:49:39;8.70;99.90
11284;DHT22;5698;47.332;11.180;2022-10-18T04:52:06;8.70;99.90
11284;DHT22;5698;47.332;11.180;2022-10-18T04:54:33;8.60;99.90
11284;DHT22;5698;47.332;11.180;2022-10-18T04:57:00;8.60;99.90
11284;DHT22;5698;47.332;11.180;2022-10-18T04:59:27;8.60;99.90
11284;DHT22;5698;47.332;11.180;2022-10-18T05:01:54;8.60;99.90
11284;DHT22;5698;47.332;11.180;2022-10-18T05:04:21;8.60;99.90
11284;DHT22;5698;47.332;11.180;2022-10-18T05:06:49;8.70;99.90
11284;DHT22;5698;47.332;11.180;2022-10-18T05:09:16;8.70;99.90
11284;DHT22;5698;47.332;11.180;2022-10-18T05:11:43;8.70;99.90
11284;DHT22;5698;47.332;11.180;2022-10-18T05:14:10;8.70;99.90
11284;DHT22;5698;47.332;11.180;2022-10-18T05:16:37;8.80;99.90
11284;DHT22;5698;47.332;11.180;2022-10-18T05:19:04;8.70;99.90
11284;DHT22;5698;47.332;11.180;2022-10-18T05:21:32;8.70;99.90
11284;DHT22;5698;47.332;11.180;2022-10-18T05:24:00;8.70;99.90
11284;DHT22;5698;47.332;11.180;2022-10-18T05:26:27;8.70;99.90
11284;DHT22;5698;47.332;11.180;2022-10-18T05:28:54;8.80;99.90
11284;DHT22;5698;47.332;11.180;2022-10-18T05:31:21;8.70;99.90
11284;DHT22;5698;47.332;11.180;2022-10-18T05:33:48;8.80;99.90
11284;DHT22;5698;47.332;11.180;2022-10-18T05:36:15;8.80;99.90
11284;DHT22;5698;47.332;11.180;2022-10-18T05:38:42;8.80;99.90
11284;DHT22;5698;47.332;11.180;2022-10-18T05:41:11;8.90;99.90
11284;DHT22;5698;47.332;11.180;2022-10-18T05:43:39;8.90;99.90
11284;DHT22;5698;47.332;11.180;2022-10-18T05:46:06;9.00;99.90
11284;DHT22;5698;47.332;11.180;2022-10-18T05:48:33;9.00;99.90
11284;DHT22;5698;47.332;11.180;2022-10-18T05:51:00;9.00;99.90
11284;DHT22;5698;47.332;11.180;2022-10-18T05:53:27;9.00;99.90
11284;DHT22;5698;47.332;11.180;2022-10-18T05:55:54;9.10;99.90
11284;DHT22;5698;47.332;11.180;2022-10-18T05:58:22;9.10;99.90
11284;DHT22;5698;47.332;11.180;2022-10-18T06:00:49;9.10;99.90
11284;DHT22;5698;47.332;11.180;2022-10-18T06:03:16;9.10;99.90
11284;DHT22;5698;47.332;11.180;2022-10-18T06:05:43;9.20;99.90
11284;DHT22;5698;47.332;11.180;2022-10-18T06:08:11;9.20;99.90
11284;DHT22;5698;47.332;11.180;2022-10-18T06:10:38;9.20;99.90
11284;DHT22;5698;47.332;11.180;2022-10-18T06:13:05;9.20;99.90
11284;DHT22;5698;47.332;11.180;2022-10-18T06:15:33;9.20;99.90
11284;DHT22;5698;47.332;11.180;2022-10-18T06:18:00;9.20;99.90
11284;DHT22;5698;47.332;11.180;2022-10-18T06:20:27;9.20;99.90
11284;DHT22;5698;47.332;11.180;2022-10-18T06:22:54;9.30;99.90
11284;DHT22;5698;47.332;11.180;2022-10-18T06:25:21;9.30;99.90
11284;DHT22;5698;47.332;11.180;2022-10-18T06:27:48;9.40;99.90
11284;DHT22;5698;47.332;11.180;2022-10-18T06:30:15;9.40;99.90
11284;DHT22;5698;47.332;11.180;2022-10-18T06:32:44;9.30;99.90
11284;DHT22;5698;47.332;11.180;2022-10-18T06:35:11;9.50;99.90
11284;DHT22;5698;47.332;11.180;2022-10-18T06:37:38;9.50;99.90
11284;DHT22;5698;47.332;11.180;2022-10-18T06:40:06;9.40;99.90
11284;DHT22;5698;47.332;11.180;2022-10-18T06:42:33;9.60;99.90
11284;DHT22;5698;47.332;11.180;2022-10-18T06:45:00;9.70;99.90
11284;DHT22;5698;47.332;11.180;2022-10-18T06:47:27;9.70;99.90
11284;DHT22;5698;47.332;11.180;2022-10-18T06:49:56;9.70;99.90
11284;DHT22;5698;47.332;11.180;2022-10-18T06:52:24;9.70;99.90
11284;DHT22;5698;47.332;11.180;2022-10-18T06:54:51;9.90;99.90
11284;DHT22;5698;47.332;11.180;2022-10-18T06:57:19;10.10;99.90
11284;DHT22;5698;47.332;11.180;2022-10-18T06:59:47;10.30;99.90
11284;DHT22;5698;47.332;11.180;2022-10-18T07:02:16;10.40;99.90
11284;DHT22;5698;47.332;11.180;2022-10-18T07:04:43;10.40;99.90
11284;DHT22;5698;47.332;11.180;2022-10-18T07:07:11;10.50;99.90
11284;DHT22;5698;47.332;11.180;2022-10-18T07:09:38;10.70;99.90
11284;DHT22;5698;47.332;11.180;2022-10-18T07:12:05;10.80;99.90
11284;DHT22;5698;47.332;11.180;2022-10-18T07:14:32;10.80;99.90
11284;DHT22;5698;47.332;11.180;2022-10-18T07:16:59;11.00;99.90
11284;DHT22;5698;47.332;11.180;2022-10-18T07:19:26;11.40;99.90
11284;DHT22;5698;47.332;11.180;2022-10-18T07:21:53;11.90;99.90
11284;DHT22;5698;47.332;11.180;2022-10-18T07:24:21;12.30;99.90
11284;DHT22;5698;47.332;11.180;2022-10-18T07:26:48;12.80;99.90
11284;DHT22;5698;47.332;11.180;2022-10-18T07:29:15;13.40;99.90
11284;DHT22;5698;47.332;11.180;2022-10-18T07:31:42;13.80;99.90
11284;DHT22;5698;47.332;11.180;2022-10-18T07:34:11;14.30;99.90
11284;DHT22;5698;47.332;11.180;2022-10-18T07:36:38;14.70;99.90
11284;DHT22;5698;47.332;11.180;2022-10-18T07:39:05;15.00;99.90
11284;DHT22;5698;47.332;11.180;2022-10-18T07:41:34;15.30;99.60
11284;DHT22;5698;47.332;11.180;2022-10-18T07:44:02;15.40;98.70
11284;DHT22;5698;47.332;11.180;2022-10-18T07:46:29;15.80;98.10
11284;DHT22;5698;47.332;11.180;2022-10-18T07:48:57;16.10;97.40
11284;DHT22;5698;47.332;11.180;2022-10-18T07:51:25;16.40;97.10
11284;DHT22;5698;47.332;11.180;2022-10-18T07:53:52;16.60;95.90
11284;DHT22;5698;47.332;11.180;2022-10-18T07:56:20;16.80;95.00
11284;DHT22;5698;47.332;11.180;2022-10-18T07:58:50;16.80;94.20
11284;DHT22;5698;47.332;11.180;2022-10-18T08:01:18;16.80;93.50
11284;DHT22;5698;47.332;11.180;2022-10-18T08:03:45;17.00;93.10
11284;DHT22;5698;47.332;11.180;2022-10-18T08:06:14;17.20;93.80
11284;DHT22;5698;47.332;11.180;2022-10-18T08:08:43;17.70;94.10
11284;DHT22;5698;47.332;11.180;2022-10-18T08:11:12;18.30;93.90
11284;DHT22;5698;47.332;11.180;2022-10-18T08:13:39;18.70;93.00
11284;DHT22;5698;47.332;11.180;2022-10-18T08:16:09;19.20;92.30
11284;DHT22;5698;47.332;11.180;2022-10-18T08:18:37;19.50;92.40
11284;DHT22;5698;47.332;11.180;2022-10-18T08:21:06;19.50;91.80
11284;DHT22;5698;47.332;11.180;2022-10-18T08:23:34;19.40;91.00
11284;DHT22;5698;47.332;11.180;2022-10-18T08:26:01;19.20;88.20
11284;DHT22;5698;47.332;11.180;2022-10-18T08:28:28;19.00;86.30
11284;DHT22;5698;47.332;11.180;2022-10-18T08:30:55;18.60;86.20
11284;DHT22;5698;47.332;11.180;2022-10-18T08:33:24;18.60;87.90
11284;DHT22;5698;47.332;11.180;2022-10-18T08:35:54;18.60;85.50
11284;DHT22;5698;47.332;11.180;2022-10-18T08:38:21;18.80;84.70
11284;DHT22;5698;47.332;11.180;2022-10-18T08:40:48;19.10;84.30
11284;DHT22;5698;47.332;11.180;2022-10-18T08:43:22;19.50;83.40
11284;DHT22;5698;47.332;11.180;2022-10-18T08:45:53;19.60;83.70
11284;DHT22;5698;47.332;11.180;2022-10-18T08:48:26;19.50;82.30
11284;DHT22;5698;47.332;11.180;2022-10-18T08:50:56;19.20;82.20
11284;DHT22;5698;47.332;11.180;2022-10-18T08:53:27;18.90;82.20
11284;DHT22;5698;47.332;11.180;2022-10-18T08:56:01;18.70;82.70
11284;DHT22;5698;47.332;11.180;2022-10-18T08:58:31;18.30;83.40
11284;DHT22;5698;47.332;11.180;2022-10-18T09:01:07;18.30;84.90
11284;DHT22;5698;47.332;11.180;2022-10-18T09:03:55;18.30;85.30
11284;DHT22;5698;47.332;11.180;2022-10-18T09:06:29;18.80;84.10
11284;DHT22;5698;47.332;11.180;2022-10-18T09:09:07;18.90;80.80
11284;DHT22;5698;47.332;11.180;2022-10-18T09:11:46;19.30;81.00
11284;DHT22;5698;47.332;11.180;2022-10-18T09:17:19;20.00;78.60
11284;DHT22;5698;47.332;11.180;2022-10-18T09:22:54;20.20;78.60
11284;DHT22;5698;47.332;11.180;2022-10-18T09:25:23;20.80;76.20
11284;DHT22;5698;47.332;11.180;2022-10-18T09:27:54;20.90;75.80
11284;DHT22;5698;47.332;11.180;2022-10-18T09:30:40;21.40;74.50
11284;DHT22;5698;47.332;11.180;2022-10-18T09:33:23;21.70;70.00
11284;DHT22;5698;47.332;11.180;2022-10-18T09:35:55;21.90;69.00
11284;DHT22;5698;47.332;11.180;2022-10-18T09:38:26;22.00;70.70
11284;DHT22;5698;47.332;11.180;2022-10-18T09:40:57;22.60;69.10
11284;DHT22;5698;47.332;11.180;2022-10-18T09:43:28;23.00;65.90
11284;DHT22;5698;47.332;11.180;2022-10-18T09:45:58;23.00;64.70
11284;DHT22;5698;47.332;11.180;2022-10-18T09:48:27;23.00;68.70
11284;DHT22;5698;47.332;11.180;2022-10-18T09:51:03;23.10;67.90
11284;DHT22;5698;47.332;11.180;2022-10-18T09:53:38;23.20;68.00
11284;DHT22;5698;47.332;11.180;2022-10-18T09:56:09;23.00;68.90
11284;DHT22;5698;47.332;11.180;2022-10-18T09:58:41;22.70;68.10
11284;DHT22;5698;47.332;11.180;2022-10-18T10:01:10;22.60;70.40
11284;DHT22;5698;47.332;11.180;2022-10-18T10:03:39;22.40;72.70
11284;DHT22;5698;47.332;11.180;2022-10-18T10:06:27;22.40;71.30
11284;DHT22;5698;47.332;11.180;2022-10-18T10:08:58;22.50;68.90
11284;DHT22;5698;47.332;11.180;2022-10-18T10:11:31;22.90;71.20
11284;DHT22;5698;47.332;11.180;2022-10-18T10:14:07;23.40;68.90
11284;DHT22;5698;47.332;11.180;2022-10-18T10:16:43;23.80;68.30
11284;DHT22;5698;47.332;11.180;2022-10-18T10:19:21;24.40;66.90
11284;DHT22;5698;47.332;11.180;2022-10-18T10:21:52;24.80;64.20
11284;DHT22;5698;47.332;11.180;2022-10-18T10:24:24;25.20;62.00
11284;DHT22;5698;47.332;11.180;2022-10-18T10:26:59;25.00;63.90
11284;DHT22;5698;47.332;11.180;2022-10-18T10:29:50;24.80;63.20
11284;DHT22;5698;47.332;11.180;2022-10-18T10:32:20;24.60;65.60
11284;DHT22;5698;47.332;11.180;2022-10-18T10:34:49;24.60;64.30
11284;DHT22;5698;47.332;11.180;2022-10-18T10:37:33;24.80;62.00
11284;DHT22;5698;47.332;11.180;2022-10-18T10:40:16;24.90;61.80
11284;DHT22;5698;47.332;11.180;2022-10-18T10:43:03;24.90;63.20
11284;DHT22;5698;47.332;11.180;2022-10-18T10:45:34;24.80;62.50
11284;DHT22;5698;47.332;11.180;2022-10-18T10:48:05;24.80;62.00
11284;DHT22;5698;47.332;11.180;2022-10-18T10:50:50;24.90;62.60
11284;DHT22;5698;47.332;11.180;2022-10-18T10:53:38;25.10;60.60
11284;DHT22;5698;47.332;11.180;2022-10-18T10:56:15;25.60;60.70
11284;DHT22;5698;47.332;11.180;2022-10-18T10:58:42;26.10;59.30
11284;DHT22;5698;47.332;11.180;2022-10-18T11:01:21;26.60;58.90
11284;DHT22;5698;47.332;11.180;2022-10-18T11:03:50;26.90;57.50
11284;DHT22;5698;47.332;11.180;2022-10-18T11:06:52;27.10;56.50
11284;DHT22;5698;47.332;11.180;2022-10-18T11:09:31;27.40;57.30
11284;DHT22;5698;47.332;11.180;2022-10-18T11:12:12;27.80;54.80
11284;DHT22;5698;47.332;11.180;2022-10-18T11:14:45;28.00;55.00
11284;DHT22;5698;47.332;11.180;2022-10-18T11:17:20;28.30;54.60
11284;DHT22;5698;47.332;11.180;2022-10-18T11:20:01;28.50;52.60
11284;DHT22;5698;47.332;11.180;2022-10-18T11:22:33;28.80;52.20
11284;DHT22;5698;47.332;11.180;2022-10-18T11:25:04;29.10;51.60
11284;DHT22;5698;47.332;11.180;2022-10-18T11:27:36;29.30;51.20
11284;DHT22;5698;47.332;11.180;2022-10-18T11:30:31;29.50;51.60
11284;DHT22;5698;47.332;11.180;2022-10-18T11:33:05;29.60;50.70
11284;DHT22;5698;47.332;11.180;2022-10-18T11:35:43;29.80;50.60
11284;DHT22;5698;47.332;11.180;2022-10-18T11:38:30;29.90;49.80
11284;DHT22;5698;47.332;11.180;2022-10-18T11:41:12;30.00;49.40
11284;DHT22;5698;47.332;11.180;2022-10-18T11:43:48;30.10;48.70
11284;DHT22;5698;47.332;11.180;2022-10-18T11:46:21;29.80;48.50
11284;DHT22;5698;47.332;11.180;2022-10-18T11:49:13;29.70;49.10
11284;DHT22;5698;47.332;11.180;2022-10-18T11:51:50;29.70;48.70
11284;DHT22;5698;47.332;11.180;2022-10-18T11:54:36;29.50;49.60
11284;DHT22;5698;47.332;11.180;2022-10-18T11:57:17;28.90;49.50
11284;DHT22;5698;47.332;11.180;2022-10-18T11:59:53;28.20;51.40
11284;DHT22;5698;47.332;11.180;2022-10-18T12:05:23;27.40;52.10
11284;DHT22;5698;47.332;11.180;2022-10-18T12:07:55;27.10;54.60
11284;DHT22;5698;47.332;11.180;2022-10-18T12:10:24;26.90;53.90
11284;DHT22;5698;47.332;11.180;2022-10-18T12:12:57;26.70;53.90
11284;DHT22;5698;47.332;11.180;2022-10-18T12:15:27;26.60;54.20
11284;DHT22;5698;47.332;11.180;2022-10-18T12:17:58;26.30;54.80
11284;DHT22;5698;47.332;11.180;2022-10-18T12:20:29;26.10;55.30
11284;DHT22;5698;47.332;11.180;2022-10-18T12:23:00;25.80;55.60
11284;DHT22;5698;47.332;11.180;2022-10-18T12:25:29;25.60;56.70
11284;DHT22;5698;47.332;11.180;2022-10-18T12:28:04;25.40;56.50
11284;DHT22;5698;47.332;11.180;2022-10-18T12:30:36;25.50;57.50
11284;DHT22;5698;47.332;11.180;2022-10-18T12:33:10;25.60;55.80
11284;DHT22;5698;47.332;11.180;2022-10-18T12:35:49;25.70;56.70
11284;DHT22;5698;47.332;11.180;2022-10-18T12:38:20;25.90;56.00
11284;DHT22;5698;47.332;11.180;2022-10-18T12:40:51;26.00;54.60
11284;DHT22;5698;47.332;11.180;2022-10-18T12:43:23;25.90;55.70
11284;DHT22;5698;47.332;11.180;2022-10-18T12:45:52;25.60;56.10
11284;DHT22;5698;47.332;11.180;2022-10-18T12:48:34;25.50;56.30
11284;DHT22;5698;47.332;11.180;2022-10-18T12:51:06;25.30;56.10
11284;DHT22;5698;47.332;11.180;2022-10-18T12:53:38;24.90;56.00
11284;DHT22;5698;47.332;11.180;2022-10-18T12:56:35;24.60;58.40
11284;DHT22;5698;47.332;11.180;2022-10-18T13:02:27;24.00;59.50
11284;DHT22;5698;47.332;11.180;2022-10-18T13:04:54;24.00;61.00
11284;DHT22;5698;47.332;11.180;2022-10-18T13:07:36;24.10;61.80
11284;DHT22;5698;47.332;11.180;2022-10-18T13:10:37;24.40;60.90
11284;DHT22;5698;47.332;11.180;2022-10-18T13:16:26;24.40;59.20
11284;DHT22;5698;47.332;11.180;2022-10-18T13:18:59;24.30;58.60
11284;DHT22;5698;47.332;11.180;2022-10-18T13:21:40;24.10;59.40
11284;DHT22;5698;47.332;11.180;2022-10-18T13:24:20;23.80;60.80
11284;DHT22;5698;47.332;11.180;2022-10-18T13:30:14;23.20;60.30
11284;DHT22;5698;47.332;11.180;2022-10-18T13:32:52;23.00;61.70
11284;DHT22;5698;47.332;11.180;2022-10-18T13:38:37;22.80;63.10
11284;DHT22;5698;47.332;11.180;2022-10-18T13:41:05;22.60;65.10
11284;DHT22;5698;47.332;11.180;2022-10-18T13:44:02;22.40;64.30
11284;DHT22;5698;47.332;11.180;2022-10-18T13:50:02;22.10;67.90
11284;DHT22;5698;47.332;11.180;2022-10-18T13:52:51;22.00;66.70
11284;DHT22;5698;47.332;11.180;2022-10-18T13:55:40;21.90;67.50
11284;DHT22;5698;47.332;11.180;2022-10-18T13:58:13;21.70;68.40
11284;DHT22;5698;47.332;11.180;2022-10-18T14:00:50;21.60;67.30
11284;DHT22;5698;47.332;11.180;2022-10-18T14:03:36;21.40;67.60
11284;DHT22;5698;47.332;11.180;2022-10-18T14:06:08;21.30;69.00
11284;DHT22;5698;47.332;11.180;2022-10-18T14:08:39;21.10;68.50
11284;DHT22;5698;47.332;11.180;2022-10-18T14:11:17;20.90;68.00
11284;DHT22;5698;47.332;11.180;2022-10-18T14:13:51;20.80;69.10
11284;DHT22;5698;47.332;11.180;2022-10-18T14:16:29;20.70;70.00
11284;DHT22;5698;47.332;11.180;2022-10-18T14:19:04;20.70;70.90
11284;DHT22;5698;47.332;11.180;2022-10-18T14:21:36;20.50;71.70
11284;DHT22;5698;47.332;11.180;2022-10-18T14:24:13;20.40;71.50
11284;DHT22;5698;47.332;11.180;2022-10-18T14:26:42;20.20;72.00
11284;DHT22;5698;47.332;11.180;2022-10-18T14:29:16;20.10;73.00
11284;DHT22;5698;47.332;11.180;2022-10-18T14:31:51;19.90;73.70
11284;DHT22;5698;47.332;11.180;2022-10-18T14:34:18;19.80;74.00
11284;DHT22;5698;47.332;11.180;2022-10-18T14:36:47;19.70;74.10
11284;DHT22;5698;47.332;11.180;2022-10-18T14:39:18;19.60;74.80
11284;DHT22;5698;47.332;11.180;2022-10-18T14:41:51;19.60;76.40
11284;DHT22;5698;47.332;11.180;2022-10-18T14:44:20;19.40;78.90
11284;DHT22;5698;47.332;11.180;2022-10-18T14:46:49;19.40;77.10
11284;DHT22;5698;47.332;11.180;2022-10-18T14:49:17;19.30;77.70
11284;DHT22;5698;47.332;11.180;2022-10-18T14:51:47;19.20;78.00
11284;DHT22;5698;47.332;11.180;2022-10-18T14:54:18;19.10;79.10
11284;DHT22;5698;47.332;11.180;2022-10-18T14:56:46;19.00;79.60
11284;DHT22;5698;47.332;11.180;2022-10-18T14:59:19;18.90;79.60
11284;DHT22;5698;47.332;11.180;2022-10-18T15:01:52;18.80;79.80
11284;DHT22;5698;47.332;11.180;2022-10-18T15:04:21;18.80;80.90
11284;DHT22;5698;47.332;11.180;2022-10-18T15:06:48;18.70;81.00
11284;DHT22;5698;47.332;11.180;2022-10-18T15:09:20;18.60;81.20
11284;DHT22;5698;47.332;11.180;2022-10-18T15:11:47;18.60;81.70
11284;DHT22;5698;47.332;11.180;2022-10-18T15:14:18;18.60;82.10
11284;DHT22;5698;47.332;11.180;2022-10-18T15:16:47;18.60;82.20
11284;DHT22;5698;47.332;11.180;2022-10-18T15:19:30;18.60;83.00
11284;DHT22;5698;47.332;11.180;2022-10-18T15:21:59;18.60;83.30
11284;DHT22;5698;47.332;11.180;2022-10-18T15:24:31;18.50;83.60
11284;DHT22;5698;47.332;11.180;2022-10-18T15:27:12;18.20;86.40
11284;DHT22;5698;47.332;11.180;2022-10-18T15:29:40;18.10;87.20
11284;DHT22;5698;47.332;11.180;2022-10-18T15:32:15;18.00;88.20
11284;DHT22;5698;47.332;11.180;2022-10-18T15:34:43;17.90;88.00
11284;DHT22;5698;47.332;11.180;2022-10-18T15:37:26;17.90;87.70
11284;DHT22;5698;47.332;11.180;2022-10-18T15:40:33;17.80;90.00
11284;DHT22;5698;47.332;11.180;2022-10-18T15:43:02;17.60;90.90
11284;DHT22;5698;47.332;11.180;2022-10-18T15:45:36;17.50;91.30
11284;DHT22;5698;47.332;11.180;2022-10-18T15:48:18;17.40;91.00
11284;DHT22;5698;47.332;11.180;2022-10-18T15:50:47;17.50;91.30
11284;DHT22;5698;47.332;11.180;2022-10-18T15:56:26;17.50;91.50
11284;DHT22;5698;47.332;11.180;2022-10-18T15:58:54;17.40;91.80
11284;DHT22;5698;47.332;11.180;2022-10-18T16:01:29;17.20;93.00
11284;DHT22;5698;47.332;11.180;2022-10-18T16:03:58;17.10;92.40
11284;DHT22;5698;47.332;11.180;2022-10-18T16:09:47;17.00;93.00
11284;DHT22;5698;47.332;11.180;2022-10-18T16:12:14;17.00;93.80
11284;DHT22;5698;47.332;11.180;2022-10-18T16:14:41;16.90;94.30
11284;DHT22;5698;47.332;11.180;2022-10-18T16:17:10;16.70;95.30
11284;DHT22;5698;47.332;11.180;2022-10-18T16:19:41;16.40;96.20
11284;DHT22;5698;47.332;11.180;2022-10-18T16:22:10;16.30;96.70
11284;DHT22;5698;47.332;11.180;2022-10-18T16:24:38;16.10;97.10
11284;DHT22;5698;47.332;11.180;2022-10-18T16:27:05;16.20;96.30
11284;DHT22;5698;47.332;11.180;2022-10-18T16:29:32;16.30;95.80
11284;DHT22;5698;47.332;11.180;2022-10-18T16:31:59;16.40;95.60
11284;DHT22;5698;47.332;11.180;2022-10-18T16:34:28;16.40;96.40
11284;DHT22;5698;47.332;11.180;2022-10-18T16:36:56;16.30;97.70